sensor_id;sensor_type;location;lat;lon;timestamp;P1;durP1;ratioP1;P2;durP2;ratioP2
78169;SDS011;67412;49.892;14.490;2023-07-13T00:00:10;8.07;;;3.53;;
78169;SDS011;67412;49.892;14.490;2023-07-13T00:05:02;9.27;;;3.70;;
78169;SDS011;67412;49.892;14.490;2023-07-13T00:07:28;7.63;;;3.70;;
78169;SDS011;67412;49.892;14.490;2023-07-13T00:09:53;8.35;;;3.75;;
78169;SDS011;67412;49.892;14.490;2023-07-13T00:12:28;8.20;;;3.83;;
78169;SDS011;67412;49.892;14.490;2023-07-13T00:14:59;9.00;;;3.55;;
78169;SDS011;67412;49.892;14.490;2023-07-13T00:17:27;7.70;;;3.50;;
78169;SDS011;67412;49.892;14.490;2023-07-13T00:19:53;8.95;;;4.00;;
78169;SDS011;67412;49.892;14.490;2023-07-13T00:22:20;8.45;;;3.45;;
78169;SDS011;67412;49.892;14.490;2023-07-13T00:24:46;9.02;;;4.00;;
78169;SDS011;67412;49.892;14.490;2023-07-13T00:27:12;7.38;;;3.83;;
78169;SDS011;67412;49.892;14.490;2023-07-13T00:29:38;7.97;;;3.45;;
78169;SDS011;67412;49.892;14.490;2023-07-13T00:32:04;8.20;;;3.88;;
78169;SDS011;67412;49.892;14.490;2023-07-13T00:34:31;9.13;;;4.22;;
78169;SDS011;67412;49.892;14.490;2023-07-13T00:36:56;7.88;;;3.80;;
78169;SDS011;67412;49.892;14.490;2023-07-13T00:39:21;9.13;;;4.05;;
78169;SDS011;67412;49.892;14.490;2023-07-13T00:41:47;9.38;;;3.65;;
78169;SDS011;67412;49.892;14.490;2023-07-13T00:44:13;9.90;;;4.18;;
78169;SDS011;67412;49.892;14.490;2023-07-13T00:46:40;10.02;;;3.97;;
78169;SDS011;67412;49.892;14.490;2023-07-13T00:49:06;9.80;;;4.30;;
78169;SDS011;67412;49.892;14.490;2023-07-13T00:54:20;8.63;;;4.22;;
78169;SDS011;67412;49.892;14.490;2023-07-13T00:59:18;9.13;;;3.90;;
78169;SDS011;67412;49.892;14.490;2023-07-13T01:01:46;11.55;;;3.83;;
78169;SDS011;67412;49.892;14.490;2023-07-13T01:04:12;11.05;;;4.30;;
78169;SDS011;67412;49.892;14.490;2023-07-13T01:06:38;11.63;;;4.13;;
78169;SDS011;67412;49.892;14.490;2023-07-13T01:09:05;8.95;;;3.40;;
78169;SDS011;67412;49.892;14.490;2023-07-13T01:11:32;10.02;;;4.00;;
78169;SDS011;67412;49.892;14.490;2023-07-13T01:13:58;8.25;;;3.63;;
78169;SDS011;67412;49.892;14.490;2023-07-13T01:16:27;9.60;;;4.55;;
78169;SDS011;67412;49.892;14.490;2023-07-13T01:18:55;9.45;;;4.10;;
78169;SDS011;67412;49.892;14.490;2023-07-13T01:21:25;8.70;;;4.05;;
78169;SDS011;67412;49.892;14.490;2023-07-13T01:26:17;7.75;;;3.40;;
78169;SDS011;67412;49.892;14.490;2023-07-13T01:28:42;10.07;;;3.70;;
78169;SDS011;67412;49.892;14.490;2023-07-13T01:31:08;8.02;;;3.78;;
78169;SDS011;67412;49.892;14.490;2023-07-13T01:33:36;10.40;;;4.07;;
78169;SDS011;67412;49.892;14.490;2023-07-13T01:36:04;8.00;;;3.85;;
78169;SDS011;67412;49.892;14.490;2023-07-13T01:38:30;9.30;;;3.83;;
78169;SDS011;67412;49.892;14.490;2023-07-13T01:40:56;8.90;;;3.60;;
78169;SDS011;67412;49.892;14.490;2023-07-13T01:43:21;9.60;;;3.55;;
78169;SDS011;67412;49.892;14.490;2023-07-13T01:45:46;8.23;;;3.72;;
78169;SDS011;67412;49.892;14.490;2023-07-13T01:48:12;8.93;;;4.10;;
78169;SDS011;67412;49.892;14.490;2023-07-13T01:53:04;7.85;;;4.13;;
78169;SDS011;67412;49.892;14.490;2023-07-13T01:55:29;7.82;;;3.55;;
78169;SDS011;67412;49.892;14.490;2023-07-13T01:57:55;8.43;;;3.20;;
78169;SDS011;67412;49.892;14.490;2023-07-13T02:00:21;9.40;;;3.63;;
78169;SDS011;67412;49.892;14.490;2023-07-13T02:02:46;7.70;;;3.35;;
78169;SDS011;67412;49.892;14.490;2023-07-13T02:05:12;7.90;;;3.58;;
78169;SDS011;67412;49.892;14.490;2023-07-13T02:07:38;7.82;;;3.22;;
78169;SDS011;67412;49.892;14.490;2023-07-13T02:10:05;10.52;;;3.85;;
78169;SDS011;67412;49.892;14.490;2023-07-13T02:12:32;10.55;;;4.15;;
78169;SDS011;67412;49.892;14.490;2023-07-13T02:14:58;9.27;;;3.83;;
78169;SDS011;67412;49.892;14.490;2023-07-13T02:17:23;11.48;;;3.95;;
78169;SDS011;67412;49.892;14.490;2023-07-13T02:19:49;10.00;;;4.05;;
78169;SDS011;67412;49.892;14.490;2023-07-13T02:22:14;9.77;;;4.70;;
78169;SDS011;67412;49.892;14.490;2023-07-13T02:24:39;8.40;;;3.70;;
78169;SDS011;67412;49.892;14.490;2023-07-13T02:27:05;7.32;;;3.67;;
78169;SDS011;67412;49.892;14.490;2023-07-13T02:29:30;9.98;;;4.05;;
78169;SDS011;67412;49.892;14.490;2023-07-13T02:31:55;9.00;;;3.53;;
78169;SDS011;67412;49.892;14.490;2023-07-13T02:34:21;9.23;;;4.30;;
78169;SDS011;67412;49.892;14.490;2023-07-13T02:36:46;7.68;;;3.70;;
78169;SDS011;67412;49.892;14.490;2023-07-13T02:39:12;9.13;;;4.10;;
78169;SDS011;67412;49.892;14.490;2023-07-13T02:44:04;7.45;;;3.38;;
78169;SDS011;67412;49.892;14.490;2023-07-13T02:46:30;8.68;;;4.10;;
78169;SDS011;67412;49.892;14.490;2023-07-13T02:48:56;10.48;;;3.83;;
78169;SDS011;67412;49.892;14.490;2023-07-13T02:51:21;9.43;;;3.90;;
78169;SDS011;67412;49.892;14.490;2023-07-13T02:53:47;10.60;;;4.15;;
78169;SDS011;67412;49.892;14.490;2023-07-13T02:56:12;8.05;;;3.40;;
78169;SDS011;67412;49.892;14.490;2023-07-13T02:58:37;9.55;;;3.88;;
78169;SDS011;67412;49.892;14.490;2023-07-13T03:01:07;8.15;;;3.88;;
78169;SDS011;67412;49.892;14.490;2023-07-13T03:03:34;8.63;;;3.50;;
78169;SDS011;67412;49.892;14.490;2023-07-13T03:06:00;9.10;;;3.75;;
78169;SDS011;67412;49.892;14.490;2023-07-13T03:08:28;7.53;;;3.55;;
78169;SDS011;67412;49.892;14.490;2023-07-13T03:11:05;7.90;;;4.18;;
78169;SDS011;67412;49.892;14.490;2023-07-13T03:13:32;7.85;;;3.65;;
78169;SDS011;67412;49.892;14.490;2023-07-13T03:15:57;14.30;;;3.45;;
78169;SDS011;67412;49.892;14.490;2023-07-13T03:18:23;7.50;;;3.08;;
78169;SDS011;67412;49.892;14.490;2023-07-13T03:20:50;9.52;;;3.70;;
78169;SDS011;67412;49.892;14.490;2023-07-13T03:23:16;8.20;;;3.50;;
78169;SDS011;67412;49.892;14.490;2023-07-13T03:25:41;7.72;;;3.58;;
78169;SDS011;67412;49.892;14.490;2023-07-13T03:28:07;7.90;;;3.40;;
78169;SDS011;67412;49.892;14.490;2023-07-13T03:30:32;7.43;;;3.03;;
78169;SDS011;67412;49.892;14.490;2023-07-13T03:32:58;8.45;;;3.60;;
78169;SDS011;67412;49.892;14.490;2023-07-13T03:35:23;7.72;;;3.30;;
78169;SDS011;67412;49.892;14.490;2023-07-13T03:37:48;8.93;;;3.17;;
78169;SDS011;67412;49.892;14.490;2023-07-13T03:40:14;7.63;;;3.20;;
78169;SDS011;67412;49.892;14.490;2023-07-13T03:42:39;8.55;;;3.60;;
78169;SDS011;67412;49.892;14.490;2023-07-13T03:45:05;7.32;;;3.20;;
78169;SDS011;67412;49.892;14.490;2023-07-13T03:47:30;7.15;;;2.88;;
78169;SDS011;67412;49.892;14.490;2023-07-13T03:49:56;7.57;;;3.03;;
78169;SDS011;67412;49.892;14.490;2023-07-13T03:52:21;8.00;;;3.78;;
78169;SDS011;67412;49.892;14.490;2023-07-13T03:54:47;6.80;;;3.15;;
78169;SDS011;67412;49.892;14.490;2023-07-13T03:57:12;9.65;;;3.05;;
78169;SDS011;67412;49.892;14.490;2023-07-13T03:59:37;8.45;;;3.35;;
78169;SDS011;67412;49.892;14.490;2023-07-13T04:02:03;7.22;;;3.20;;
78169;SDS011;67412;49.892;14.490;2023-07-13T04:04:30;7.57;;;3.20;;
78169;SDS011;67412;49.892;14.490;2023-07-13T04:06:55;8.32;;;3.45;;
78169;SDS011;67412;49.892;14.490;2023-07-13T04:09:23;7.43;;;3.50;;
78169;SDS011;67412;49.892;14.490;2023-07-13T04:11:49;7.50;;;3.33;;
78169;SDS011;67412;49.892;14.490;2023-07-13T04:14:15;9.93;;;3.85;;
78169;SDS011;67412;49.892;14.490;2023-07-13T04:16:40;9.93;;;3.45;;
78169;SDS011;67412;49.892;14.490;2023-07-13T04:19:06;10.02;;;3.50;;
78169;SDS011;67412;49.892;14.490;2023-07-13T04:23:58;7.15;;;3.15;;
78169;SDS011;67412;49.892;14.490;2023-07-13T04:26:24;8.65;;;3.67;;
78169;SDS011;67412;49.892;14.490;2023-07-13T04:28:50;7.68;;;3.38;;
78169;SDS011;67412;49.892;14.490;2023-07-13T04:31:17;9.27;;;3.50;;
78169;SDS011;67412;49.892;14.490;2023-07-13T04:33:42;8.73;;;3.78;;
78169;SDS011;67412;49.892;14.490;2023-07-13T04:36:08;8.95;;;3.75;;
78169;SDS011;67412;49.892;14.490;2023-07-13T04:38:34;9.05;;;3.55;;
78169;SDS011;67412;49.892;14.490;2023-07-13T04:41:01;9.13;;;3.50;;
78169;SDS011;67412;49.892;14.490;2023-07-13T04:43:28;7.93;;;3.33;;
78169;SDS011;67412;49.892;14.490;2023-07-13T04:45:55;8.30;;;3.28;;
78169;SDS011;67412;49.892;14.490;2023-07-13T04:48:21;8.63;;;3.60;;
78169;SDS011;67412;49.892;14.490;2023-07-13T04:50:47;7.32;;;3.40;;
78169;SDS011;67412;49.892;14.490;2023-07-13T04:53:12;8.82;;;3.78;;
78169;SDS011;67412;49.892;14.490;2023-07-13T04:55:38;7.53;;;3.00;;
78169;SDS011;67412;49.892;14.490;2023-07-13T04:58:04;7.00;;;3.28;;
78169;SDS011;67412;49.892;14.490;2023-07-13T05:00:30;7.68;;;3.25;;
78169;SDS011;67412;49.892;14.490;2023-07-13T05:02:56;7.57;;;3.22;;
78169;SDS011;67412;49.892;14.490;2023-07-13T05:05:23;9.63;;;3.50;;
78169;SDS011;67412;49.892;14.490;2023-07-13T05:07:49;7.70;;;3.50;;
78169;SDS011;67412;49.892;14.490;2023-07-13T05:10:15;7.65;;;3.83;;
78169;SDS011;67412;49.892;14.490;2023-07-13T05:12:40;8.80;;;3.58;;
78169;SDS011;67412;49.892;14.490;2023-07-13T05:15:06;8.48;;;3.65;;
78169;SDS011;67412;49.892;14.490;2023-07-13T05:17:32;7.85;;;3.38;;
78169;SDS011;67412;49.892;14.490;2023-07-13T05:19:57;7.90;;;3.33;;
78169;SDS011;67412;49.892;14.490;2023-07-13T05:22:22;8.45;;;3.85;;
78169;SDS011;67412;49.892;14.490;2023-07-13T05:24:48;9.35;;;3.63;;
78169;SDS011;67412;49.892;14.490;2023-07-13T05:27:13;8.90;;;3.28;;
78169;SDS011;67412;49.892;14.490;2023-07-13T05:29:38;9.65;;;3.55;;
78169;SDS011;67412;49.892;14.490;2023-07-13T05:32:04;10.00;;;3.45;;
78169;SDS011;67412;49.892;14.490;2023-07-13T05:34:29;7.25;;;3.20;;
78169;SDS011;67412;49.892;14.490;2023-07-13T05:36:55;7.57;;;3.15;;
78169;SDS011;67412;49.892;14.490;2023-07-13T05:39:20;5.53;;;2.47;;
78169;SDS011;67412;49.892;14.490;2023-07-13T05:41:45;3.85;;;1.98;;
78169;SDS011;67412;49.892;14.490;2023-07-13T05:44:11;4.80;;;1.92;;
78169;SDS011;67412;49.892;14.490;2023-07-13T05:46:36;6.78;;;2.45;;
78169;SDS011;67412;49.892;14.490;2023-07-13T05:49:01;5.00;;;1.85;;
78169;SDS011;67412;49.892;14.490;2023-07-13T05:51:28;6.38;;;1.85;;
78169;SDS011;67412;49.892;14.490;2023-07-13T05:53:53;6.32;;;1.90;;
78169;SDS011;67412;49.892;14.490;2023-07-13T05:56:18;4.82;;;1.90;;
78169;SDS011;67412;49.892;14.490;2023-07-13T05:58:44;3.78;;;1.73;;
78169;SDS011;67412;49.892;14.490;2023-07-13T06:01:13;5.43;;;1.83;;
78169;SDS011;67412;49.892;14.490;2023-07-13T06:03:39;5.30;;;1.70;;
78169;SDS011;67412;49.892;14.490;2023-07-13T06:06:05;6.45;;;2.30;;
78169;SDS011;67412;49.892;14.490;2023-07-13T06:08:32;7.03;;;1.90;;
78169;SDS011;67412;49.892;14.490;2023-07-13T06:11:01;4.90;;;1.63;;
78169;SDS011;67412;49.892;14.490;2023-07-13T06:13:44;3.78;;;1.67;;
78169;SDS011;67412;49.892;14.490;2023-07-13T06:16:09;5.03;;;1.85;;
78169;SDS011;67412;49.892;14.490;2023-07-13T06:18:35;4.70;;;1.90;;
78169;SDS011;67412;49.892;14.490;2023-07-13T06:21:08;6.07;;;1.88;;
78169;SDS011;67412;49.892;14.490;2023-07-13T06:23:38;6.25;;;1.90;;
78169;SDS011;67412;49.892;14.490;2023-07-13T06:26:04;4.75;;;1.90;;
78169;SDS011;67412;49.892;14.490;2023-07-13T06:30:57;5.13;;;2.05;;
78169;SDS011;67412;49.892;14.490;2023-07-13T06:35:48;6.80;;;2.53;;
78169;SDS011;67412;49.892;14.490;2023-07-13T06:38:13;6.68;;;1.95;;
78169;SDS011;67412;49.892;14.490;2023-07-13T06:40:39;6.05;;;2.10;;
78169;SDS011;67412;49.892;14.490;2023-07-13T06:43:04;6.38;;;2.17;;
78169;SDS011;67412;49.892;14.490;2023-07-13T06:45:29;4.15;;;2.00;;
78169;SDS011;67412;49.892;14.490;2023-07-13T06:47:55;6.57;;;2.00;;
78169;SDS011;67412;49.892;14.490;2023-07-13T06:50:20;4.65;;;1.95;;
78169;SDS011;67412;49.892;14.490;2023-07-13T06:52:45;5.78;;;2.15;;
78169;SDS011;67412;49.892;14.490;2023-07-13T06:55:11;5.43;;;1.92;;
78169;SDS011;67412;49.892;14.490;2023-07-13T06:57:36;3.15;;;1.55;;
78169;SDS011;67412;49.892;14.490;2023-07-13T07:00:02;5.80;;;1.95;;
78169;SDS011;67412;49.892;14.490;2023-07-13T07:02:27;5.47;;;1.95;;
78169;SDS011;67412;49.892;14.490;2023-07-13T07:04:52;5.28;;;2.08;;
78169;SDS011;67412;49.892;14.490;2023-07-13T07:09:44;4.35;;;1.63;;
78169;SDS011;67412;49.892;14.490;2023-07-13T07:12:10;4.70;;;1.92;;
78169;SDS011;67412;49.892;14.490;2023-07-13T07:14:35;5.00;;;1.85;;
78169;SDS011;67412;49.892;14.490;2023-07-13T07:17:00;5.15;;;1.80;;
78169;SDS011;67412;49.892;14.490;2023-07-13T07:19:27;3.33;;;1.60;;
78169;SDS011;67412;49.892;14.490;2023-07-13T07:21:54;5.00;;;1.52;;
78169;SDS011;67412;49.892;14.490;2023-07-13T07:24:19;4.82;;;1.80;;
78169;SDS011;67412;49.892;14.490;2023-07-13T07:26:45;4.30;;;1.50;;
78169;SDS011;67412;49.892;14.490;2023-07-13T07:29:10;5.95;;;1.60;;
78169;SDS011;67412;49.892;14.490;2023-07-13T07:31:35;3.10;;;1.70;;
78169;SDS011;67412;49.892;14.490;2023-07-13T07:34:02;3.67;;;1.35;;
78169;SDS011;67412;49.892;14.490;2023-07-13T07:36:27;3.70;;;1.80;;
78169;SDS011;67412;49.892;14.490;2023-07-13T07:38:53;3.63;;;1.50;;
78169;SDS011;67412;49.892;14.490;2023-07-13T07:41:18;5.30;;;1.70;;
78169;SDS011;67412;49.892;14.490;2023-07-13T07:43:44;3.47;;;1.60;;
78169;SDS011;67412;49.892;14.490;2023-07-13T07:46:09;4.47;;;1.52;;
78169;SDS011;67412;49.892;14.490;2023-07-13T07:48:34;5.53;;;1.73;;
78169;SDS011;67412;49.892;14.490;2023-07-13T07:51:00;5.45;;;1.90;;
78169;SDS011;67412;49.892;14.490;2023-07-13T07:53:25;3.63;;;1.58;;
78169;SDS011;67412;49.892;14.490;2023-07-13T07:55:50;3.50;;;1.50;;
78169;SDS011;67412;49.892;14.490;2023-07-13T07:58:16;4.20;;;1.40;;
78169;SDS011;67412;49.892;14.490;2023-07-13T08:00:41;3.35;;;1.52;;
78169;SDS011;67412;49.892;14.490;2023-07-13T08:03:07;2.97;;;1.30;;
78169;SDS011;67412;49.892;14.490;2023-07-13T08:05:34;3.63;;;1.67;;
78169;SDS011;67412;49.892;14.490;2023-07-13T08:08:00;4.47;;;1.50;;
78169;SDS011;67412;49.892;14.490;2023-07-13T08:10:26;3.58;;;1.48;;
78169;SDS011;67412;49.892;14.490;2023-07-13T08:12:51;3.72;;;1.48;;
78169;SDS011;67412;49.892;14.490;2023-07-13T08:15:17;2.97;;;1.40;;
78169;SDS011;67412;49.892;14.490;2023-07-13T08:17:43;4.25;;;1.33;;
78169;SDS011;67412;49.892;14.490;2023-07-13T08:20:08;4.50;;;1.55;;
78169;SDS011;67412;49.892;14.490;2023-07-13T08:22:34;3.97;;;1.50;;
78169;SDS011;67412;49.892;14.490;2023-07-13T08:25:00;4.40;;;1.58;;
78169;SDS011;67412;49.892;14.490;2023-07-13T08:27:26;5.00;;;1.70;;
78169;SDS011;67412;49.892;14.490;2023-07-13T08:29:52;6.57;;;1.80;;
78169;SDS011;67412;49.892;14.490;2023-07-13T08:32:19;3.70;;;1.40;;
78169;SDS011;67412;49.892;14.490;2023-07-13T08:34:45;3.75;;;1.48;;
78169;SDS011;67412;49.892;14.490;2023-07-13T08:37:11;4.15;;;1.70;;
78169;SDS011;67412;49.892;14.490;2023-07-13T08:39:37;5.78;;;1.85;;
78169;SDS011;67412;49.892;14.490;2023-07-13T08:42:07;4.72;;;1.60;;
78169;SDS011;67412;49.892;14.490;2023-07-13T08:47:21;3.25;;;1.45;;
78169;SDS011;67412;49.892;14.490;2023-07-13T08:49:48;3.35;;;1.40;;
78169;SDS011;67412;49.892;14.490;2023-07-13T08:52:17;3.45;;;1.42;;
78169;SDS011;67412;49.892;14.490;2023-07-13T08:54:55;3.67;;;1.35;;
78169;SDS011;67412;49.892;14.490;2023-07-13T08:57:24;4.47;;;1.63;;
78169;SDS011;67412;49.892;14.490;2023-07-13T08:59:58;3.42;;;1.40;;
78169;SDS011;67412;49.892;14.490;2023-07-13T09:02:27;3.47;;;1.67;;
78169;SDS011;67412;49.892;14.490;2023-07-13T09:05:04;5.00;;;1.60;;
78169;SDS011;67412;49.892;14.490;2023-07-13T09:07:58;4.50;;;1.35;;
78169;SDS011;67412;49.892;14.490;2023-07-13T09:10:45;6.00;;;1.92;;
78169;SDS011;67412;49.892;14.490;2023-07-13T09:15:57;4.93;;;1.48;;
78169;SDS011;67412;49.892;14.490;2023-07-13T09:18:28;4.07;;;1.50;;
78169;SDS011;67412;49.892;14.490;2023-07-13T09:23:39;4.20;;;1.70;;
78169;SDS011;67412;49.892;14.490;2023-07-13T09:26:18;4.68;;;1.52;;
78169;SDS011;67412;49.892;14.490;2023-07-13T09:28:57;4.43;;;1.60;;
78169;SDS011;67412;49.892;14.490;2023-07-13T09:34:02;4.80;;;2.00;;
78169;SDS011;67412;49.892;14.490;2023-07-13T09:36:34;4.10;;;1.33;;
78169;SDS011;67412;49.892;14.490;2023-07-13T09:41:39;3.72;;;1.58;;
78169;SDS011;67412;49.892;14.490;2023-07-13T09:44:17;6.28;;;1.52;;
78169;SDS011;67412;49.892;14.490;2023-07-13T09:46:53;4.82;;;1.95;;
78169;SDS011;67412;49.892;14.490;2023-07-13T09:49:23;5.30;;;1.45;;
78169;SDS011;67412;49.892;14.490;2023-07-13T09:52:00;3.47;;;1.50;;
78169;SDS011;67412;49.892;14.490;2023-07-13T09:54:27;3.83;;;1.33;;
78169;SDS011;67412;49.892;14.490;2023-07-13T09:57:03;4.78;;;1.42;;
78169;SDS011;67412;49.892;14.490;2023-07-13T09:59:40;5.00;;;1.70;;
78169;SDS011;67412;49.892;14.490;2023-07-13T10:02:22;3.67;;;1.58;;
78169;SDS011;67412;49.892;14.490;2023-07-13T10:04:53;3.45;;;1.58;;
78169;SDS011;67412;49.892;14.490;2023-07-13T10:07:22;4.32;;;1.42;;
78169;SDS011;67412;49.892;14.490;2023-07-13T10:09:51;3.13;;;1.38;;
78169;SDS011;67412;49.892;14.490;2023-07-13T10:12:18;5.53;;;1.65;;
78169;SDS011;67412;49.892;14.490;2023-07-13T10:14:43;4.63;;;1.50;;
78169;SDS011;67412;49.892;14.490;2023-07-13T10:17:10;3.75;;;1.52;;
78169;SDS011;67412;49.892;14.490;2023-07-13T10:19:39;4.50;;;1.60;;
78169;SDS011;67412;49.892;14.490;2023-07-13T10:22:18;4.80;;;1.33;;
78169;SDS011;67412;49.892;14.490;2023-07-13T10:24:46;5.20;;;1.60;;
78169;SDS011;67412;49.892;14.490;2023-07-13T10:27:16;2.95;;;1.30;;
78169;SDS011;67412;49.892;14.490;2023-07-13T10:29:47;4.05;;;1.48;;
78169;SDS011;67412;49.892;14.490;2023-07-13T10:32:17;3.60;;;1.48;;
78169;SDS011;67412;49.892;14.490;2023-07-13T10:34:46;3.33;;;1.30;;
78169;SDS011;67412;49.892;14.490;2023-07-13T10:37:15;3.05;;;1.27;;
78169;SDS011;67412;49.892;14.490;2023-07-13T10:39:45;4.45;;;1.35;;
78169;SDS011;67412;49.892;14.490;2023-07-13T10:42:13;4.57;;;1.40;;
78169;SDS011;67412;49.892;14.490;2023-07-13T10:44:51;4.18;;;1.55;;
78169;SDS011;67412;49.892;14.490;2023-07-13T10:47:16;3.83;;;1.30;;
78169;SDS011;67412;49.892;14.490;2023-07-13T10:49:43;3.30;;;1.48;;
78169;SDS011;67412;49.892;14.490;2023-07-13T10:55:09;1.98;;;1.13;;
78169;SDS011;67412;49.892;14.490;2023-07-13T10:58:41;4.10;;;1.77;;
78169;SDS011;67412;49.892;14.490;2023-07-13T11:01:04;4.57;;;1.23;;
78169;SDS011;67412;49.892;14.490;2023-07-13T11:03:34;5.07;;;1.50;;
78169;SDS011;67412;49.892;14.490;2023-07-13T11:06:07;2.95;;;1.17;;
78169;SDS011;67412;49.892;14.490;2023-07-13T11:08:37;3.47;;;1.50;;
78169;SDS011;67412;49.892;14.490;2023-07-13T11:18:44;3.40;;;1.30;;
78169;SDS011;67412;49.892;14.490;2023-07-13T11:21:14;3.20;;;1.42;;
78169;SDS011;67412;49.892;14.490;2023-07-13T11:23:43;3.10;;;1.23;;
78169;SDS011;67412;49.892;14.490;2023-07-13T11:31:40;3.03;;;1.40;;
78169;SDS011;67412;49.892;14.490;2023-07-13T11:34:14;3.40;;;1.50;;
78169;SDS011;67412;49.892;14.490;2023-07-13T11:36:42;3.88;;;1.30;;
78169;SDS011;67412;49.892;14.490;2023-07-13T11:41:56;3.97;;;1.42;;
78169;SDS011;67412;49.892;14.490;2023-07-13T11:44:26;2.55;;;1.10;;
78169;SDS011;67412;49.892;14.490;2023-07-13T11:47:00;3.72;;;1.40;;
78169;SDS011;67412;49.892;14.490;2023-07-13T11:49:42;4.72;;;1.33;;
78169;SDS011;67412;49.892;14.490;2023-07-13T11:52:13;5.65;;;1.70;;
78169;SDS011;67412;49.892;14.490;2023-07-13T11:54:49;4.70;;;1.40;;
78169;SDS011;67412;49.892;14.490;2023-07-13T11:57:30;3.60;;;1.40;;
78169;SDS011;67412;49.892;14.490;2023-07-13T11:59:59;4.43;;;1.50;;
78169;SDS011;67412;49.892;14.490;2023-07-13T12:02:33;4.45;;;1.52;;
78169;SDS011;67412;49.892;14.490;2023-07-13T12:05:01;3.60;;;1.60;;
78169;SDS011;67412;49.892;14.490;2023-07-13T12:07:29;2.65;;;1.50;;
78169;SDS011;67412;49.892;14.490;2023-07-13T12:10:03;6.78;;;1.60;;
78169;SDS011;67412;49.892;14.490;2023-07-13T12:12:53;4.57;;;1.60;;
78169;SDS011;67412;49.892;14.490;2023-07-13T12:15:19;3.63;;;1.70;;
78169;SDS011;67412;49.892;14.490;2023-07-13T12:17:47;3.53;;;1.50;;
78169;SDS011;67412;49.892;14.490;2023-07-13T12:20:26;3.65;;;1.50;;
78169;SDS011;67412;49.892;14.490;2023-07-13T12:22:58;5.55;;;1.65;;
78169;SDS011;67412;49.892;14.490;2023-07-13T12:25:23;3.40;;;1.40;;
78169;SDS011;67412;49.892;14.490;2023-07-13T12:27:50;3.17;;;1.60;;
78169;SDS011;67412;49.892;14.490;2023-07-13T12:30:32;2.67;;;1.45;;
78169;SDS011;67412;49.892;14.490;2023-07-13T12:33:08;4.85;;;1.73;;
78169;SDS011;67412;49.892;14.490;2023-07-13T12:35:54;4.47;;;1.70;;
78169;SDS011;67412;49.892;14.490;2023-07-13T12:38:20;4.45;;;1.65;;
78169;SDS011;67412;49.892;14.490;2023-07-13T12:43:14;3.55;;;1.70;;
78169;SDS011;67412;49.892;14.490;2023-07-13T12:45:56;3.90;;;1.60;;
78169;SDS011;67412;49.892;14.490;2023-07-13T12:48:41;3.15;;;1.30;;
78169;SDS011;67412;49.892;14.490;2023-07-13T12:51:16;5.82;;;1.52;;
78169;SDS011;67412;49.892;14.490;2023-07-13T12:53:47;3.10;;;1.20;;
78169;SDS011;67412;49.892;14.490;2023-07-13T12:56:17;3.70;;;1.48;;
78169;SDS011;67412;49.892;14.490;2023-07-13T12:58:46;4.55;;;1.45;;
78169;SDS011;67412;49.892;14.490;2023-07-13T13:01:15;3.38;;;1.77;;
78169;SDS011;67412;49.892;14.490;2023-07-13T13:03:46;3.80;;;1.50;;
78169;SDS011;67412;49.892;14.490;2023-07-13T13:08:40;2.37;;;1.20;;
78169;SDS011;67412;49.892;14.490;2023-07-13T13:11:07;5.13;;;1.90;;
78169;SDS011;67412;49.892;14.490;2023-07-13T13:13:34;3.40;;;1.50;;
78169;SDS011;67412;49.892;14.490;2023-07-13T13:16:43;3.85;;;1.30;;
78169;SDS011;67412;49.892;14.490;2023-07-13T13:18:54;4.15;;;1.42;;
78169;SDS011;67412;49.892;14.490;2023-07-13T13:21:22;3.75;;;1.55;;
78169;SDS011;67412;49.892;14.490;2023-07-13T13:23:49;4.18;;;1.30;;
78169;SDS011;67412;49.892;14.490;2023-07-13T13:26:16;5.82;;;1.50;;
78169;SDS011;67412;49.892;14.490;2023-07-13T13:28:42;3.47;;;1.58;;
78169;SDS011;67412;49.892;14.490;2023-07-13T13:31:09;4.90;;;1.60;;
78169;SDS011;67412;49.892;14.490;2023-07-13T13:33:38;2.80;;;1.38;;
78169;SDS011;67412;49.892;14.490;2023-07-13T13:36:18;3.85;;;1.40;;
78169;SDS011;67412;49.892;14.490;2023-07-13T13:38:47;3.25;;;1.42;;
78169;SDS011;67412;49.892;14.490;2023-07-13T13:41:13;3.88;;;1.42;;
78169;SDS011;67412;49.892;14.490;2023-07-13T13:43:39;3.13;;;1.40;;
78169;SDS011;67412;49.892;14.490;2023-07-13T13:46:16;3.17;;;1.40;;
78169;SDS011;67412;49.892;14.490;2023-07-13T13:48:44;3.15;;;1.33;;
78169;SDS011;67412;49.892;14.490;2023-07-13T13:51:17;2.35;;;1.23;;
78169;SDS011;67412;49.892;14.490;2023-07-13T13:53:47;5.70;;;1.40;;
78169;SDS011;67412;49.892;14.490;2023-07-13T13:56:13;5.40;;;1.63;;
78169;SDS011;67412;49.892;14.490;2023-07-13T14:01:08;4.03;;;1.50;;
78169;SDS011;67412;49.892;14.490;2023-07-13T14:03:48;2.70;;;1.33;;
78169;SDS011;67412;49.892;14.490;2023-07-13T14:06:14;3.78;;;1.33;;
78169;SDS011;67412;49.892;14.490;2023-07-13T14:08:41;3.10;;;1.35;;
78169;SDS011;67412;49.892;14.490;2023-07-13T14:11:09;3.03;;;1.33;;
78169;SDS011;67412;49.892;14.490;2023-07-13T14:13:38;7.05;;;1.77;;
78169;SDS011;67412;49.892;14.490;2023-07-13T14:16:10;4.63;;;1.85;;
78169;SDS011;67412;49.892;14.490;2023-07-13T14:18:38;2.50;;;1.30;;
78169;SDS011;67412;49.892;14.490;2023-07-13T14:21:03;4.20;;;1.40;;
78169;SDS011;67412;49.892;14.490;2023-07-13T14:23:37;3.83;;;1.60;;
78169;SDS011;67412;49.892;14.490;2023-07-13T14:26:04;2.72;;;1.30;;
78169;SDS011;67412;49.892;14.490;2023-07-13T14:28:37;3.88;;;1.70;;
78169;SDS011;67412;49.892;14.490;2023-07-13T14:31:05;6.05;;;1.50;;
78169;SDS011;67412;49.892;14.490;2023-07-13T14:33:30;4.57;;;1.33;;
78169;SDS011;67412;49.892;14.490;2023-07-13T14:35:55;5.18;;;1.20;;
78169;SDS011;67412;49.892;14.490;2023-07-13T14:38:21;4.72;;;1.15;;
78169;SDS011;67412;49.892;14.490;2023-07-13T14:40:46;6.28;;;1.60;;
78169;SDS011;67412;49.892;14.490;2023-07-13T14:43:12;4.13;;;1.38;;
78169;SDS011;67412;49.892;14.490;2023-07-13T14:45:40;4.82;;;1.50;;
78169;SDS011;67412;49.892;14.490;2023-07-13T14:48:12;4.93;;;1.40;;
78169;SDS011;67412;49.892;14.490;2023-07-13T14:50:39;3.42;;;1.20;;
78169;SDS011;67412;49.892;14.490;2023-07-13T14:53:08;4.38;;;1.30;;
78169;SDS011;67412;49.892;14.490;2023-07-13T14:55:35;3.30;;;1.13;;
78169;SDS011;67412;49.892;14.490;2023-07-13T14:58:00;4.07;;;1.40;;
78169;SDS011;67412;49.892;14.490;2023-07-13T15:00:26;3.13;;;1.40;;
78169;SDS011;67412;49.892;14.490;2023-07-13T15:02:53;3.75;;;1.38;;
78169;SDS011;67412;49.892;14.490;2023-07-13T15:05:21;6.35;;;1.55;;
78169;SDS011;67412;49.892;14.490;2023-07-13T15:07:49;3.45;;;1.50;;
78169;SDS011;67412;49.892;14.490;2023-07-13T15:10:22;2.45;;;1.23;;
78169;SDS011;67412;49.892;14.490;2023-07-13T15:12:51;3.08;;;1.45;;
78169;SDS011;67412;49.892;14.490;2023-07-13T15:15:17;4.20;;;1.60;;
78169;SDS011;67412;49.892;14.490;2023-07-13T15:17:43;3.08;;;1.40;;
78169;SDS011;67412;49.892;14.490;2023-07-13T15:20:32;3.70;;;1.30;;
78169;SDS011;67412;49.892;14.490;2023-07-13T15:23:00;3.42;;;1.45;;
78169;SDS011;67412;49.892;14.490;2023-07-13T15:25:26;4.80;;;1.65;;
78169;SDS011;67412;49.892;14.490;2023-07-13T15:27:54;2.95;;;1.40;;
78169;SDS011;67412;49.892;14.490;2023-07-13T15:30:20;4.53;;;1.40;;
78169;SDS011;67412;49.892;14.490;2023-07-13T15:32:46;3.03;;;1.45;;
78169;SDS011;67412;49.892;14.490;2023-07-13T15:35:17;4.18;;;1.42;;
78169;SDS011;67412;49.892;14.490;2023-07-13T15:37:47;6.00;;;1.70;;
78169;SDS011;67412;49.892;14.490;2023-07-13T15:42:39;3.55;;;1.38;;
78169;SDS011;67412;49.892;14.490;2023-07-13T15:45:24;4.57;;;1.33;;